Time;durP1;ratioP1;P1;durP2;ratioP2;P2;SDS_P1;SDS_P2;PMS_P1;PMS_P2;Temp;Humidity;BMP_temperature;BMP_pressure;BME280_temperature;BME280_humidity;BME280_pressure;Samples;Min_cycle;Max_cycle;Signal;HPM_P1;HPM_P2
2023/02/21 02:14:54;;;;;;;4.87;2.67;;;15.10;63.00;;;;;;5012117;28;20449;-78
2023/02/21 02:17:47;;;;;;;3.70;2.10;;;15.10;62.90;;;;;;5012084;28;20480;-78
2023/02/21 02:20:32;;;;;;;5.00;2.75;;;15.10;62.90;;;;;;5012409;28;20025;-78
2023/02/21 02:23:13;;;;;;;5.63;2.95;;;15.00;62.90;;;;;;5012352;28;20026;-78
2023/02/21 02:25:55;;;;;;;4.55;2.75;;;15.00;62.90;;;;;;5012227;28;20196;-78
2023/02/21 02:28:58;;;;;;;5.95;2.72;;;15.00;63.00;;;;;;5012193;28;20384;-78
2023/02/21 02:31:49;;;;;;;4.70;2.47;;;15.00;62.90;;;;;;5012251;28;20033;-76
2023/02/21 02:34:21;;;;;;;5.47;3.10;;;15.00;62.80;;;;;;5012101;28;20103;-76
2023/02/21 02:37:09;;;;;;;4.40;2.67;;;15.00;63.00;;;;;;5012164;28;20080;-76
2023/02/21 02:39:46;;;;;;;6.85;3.45;;;15.00;62.90;;;;;;5011681;28;20025;-76
2023/02/21 02:42:40;;;;;;;7.90;3.33;;;15.00;62.90;;;;;;5011824;28;20026;-76
2023/02/21 02:45:21;;;;;;;4.97;3.00;;;15.00;62.90;;;;;;5011664;28;20034;-76
2023/02/21 02:48:00;;;;;;;6.65;3.22;;;15.00;62.90;;;;;;5011726;28;20026;-75
2023/02/21 02:50:27;;;;;;;4.28;2.72;;;15.00;63.00;;;;;;5011710;28;20030;-75
2023/02/21 02:52:55;;;;;;;5.90;3.00;;;15.00;63.00;;;;;;5011625;28;20036;-75
2023/02/21 02:55:34;;;;;;;4.85;2.50;;;15.00;63.00;;;;;;5012329;28;20038;-76
2023/02/21 02:58:01;;;;;;;4.60;3.40;;;15.00;63.00;;;;;;5015213;28;20040;-75
2023/02/21 03:00:28;;;;;;;4.13;2.90;;;15.00;63.00;;;;;;5015080;28;20029;-76
2023/02/21 03:03:09;;;;;;;3.80;2.40;;;15.00;63.00;;;;;;5014844;28;20084;-76
2023/02/21 03:05:48;;;;;;;6.07;2.88;;;15.00;62.90;;;;;;5015280;28;20064;-75
2023/02/21 03:08:38;;;;;;;5.85;3.25;;;15.00;63.00;;;;;;5015322;28;20420;-74
2023/02/21 03:11:20;;;;;;;4.50;2.65;;;15.00;63.00;;;;;;5014972;28;20048;-75
2023/02/21 03:14:07;;;;;;;5.53;3.08;;;15.00;63.00;;;;;;5015176;28;20025;-76
2023/02/21 03:16:41;;;;;;;4.68;2.50;;;15.00;63.00;;;;;;5015099;28;20037;-75
2023/02/21 03:19:13;;;;;;;7.18;3.13;;;15.00;63.00;;;;;;5015031;28;20427;-76
2023/02/21 03:21:48;;;;;;;5.25;3.33;;;15.00;63.00;;;;;;5015153;28;20088;-76
2023/02/21 03:24:16;;;;;;;6.03;2.88;;;15.00;63.00;;;;;;5014635;28;20742;-76
2023/02/21 03:26:44;;;;;;;5.25;2.70;;;15.00;63.00;;;;;;5014506;28;20500;-76
2023/02/21 03:29:11;;;;;;;6.13;3.22;;;15.00;63.00;;;;;;4997497;28;20418;-75
2023/02/21 03:31:45;;;;;;;5.32;3.35;;;15.00;63.00;;;;;;5014824;28;20431;-75
2023/02/21 03:34:11;;;;;;;5.65;3.40;;;15.00;63.00;;;;;;5014723;28;20022;-76
2023/02/21 03:36:38;;;;;;;5.78;3.08;;;15.00;63.00;;;;;;5014249;28;20495;-76
2023/02/21 03:39:04;;;;;;;7.65;3.03;;;15.00;63.10;;;;;;5014649;28;20384;-76
2023/02/21 03:41:30;;;;;;;5.85;2.53;;;15.00;63.00;;;;;;5014413;28;20026;-75
2023/02/21 03:43:55;;;;;;;3.80;2.67;;;15.00;63.00;;;;;;5014166;28;20026;-75
2023/02/21 03:46:21;;;;;;;4.22;2.58;;;14.90;63.00;;;;;;4996547;28;20502;-76
2023/02/21 03:48:47;;;;;;;6.45;3.55;;;15.00;63.00;;;;;;5014132;28;20037;-76
2023/02/21 03:51:13;;;;;;;5.97;3.35;;;15.00;63.10;;;;;;5014457;28;20067;-76
2023/02/21 03:53:39;;;;;;;6.68;3.60;;;15.00;63.00;;;;;;5014004;28;20101;-76
2023/02/21 03:56:06;;;;;;;4.93;2.60;;;15.00;63.00;;;;;;5014144;28;20034;-76
2023/02/21 03:58:32;;;;;;;5.78;2.78;;;15.00;63.00;;;;;;5013982;28;20460;-75
2023/02/21 04:00:58;;;;;;;7.28;2.50;;;15.30;72.20;;;;;;5013881;28;20053;-75
2023/02/21 04:03:24;;;;;;;4.45;2.90;;;14.90;63.10;;;;;;5013636;28;20045;-76
2023/02/21 04:05:49;;;;;;;5.95;3.00;;;15.00;63.00;;;;;;5013755;28;20499;-75
2023/02/21 04:08:15;;;;;;;7.28;3.33;;;15.00;63.10;;;;;;5012980;28;20026;-75
2023/02/21 04:10:41;;;;;;;4.70;2.85;;;15.00;63.10;;;;;;5013648;28;20036;-76
2023/02/21 04:13:08;;;;;;;4.88;2.80;;;15.00;63.10;;;;;;5013662;28;20056;-76
2023/02/21 04:15:33;;;;;;;5.80;2.80;;;14.90;63.00;;;;;;4996484;28;20030;-75
2023/02/21 04:17:59;;;;;;;5.88;2.88;;;15.00;63.10;;;;;;5013595;28;20018;-76
2023/02/21 04:20:24;;;;;;;4.32;2.90;;;15.00;63.10;;;;;;5013588;28;20109;-75
2023/02/21 04:22:50;;;;;;;2.97;2.58;;;14.90;63.10;;;;;;5013614;28;20036;-75
2023/02/21 04:25:16;;;;;;;4.53;2.90;;;15.00;63.10;;;;;;5013478;28;20037;-76
2023/02/21 04:27:41;;;;;;;4.57;2.72;;;15.00;63.10;;;;;;5013473;28;20113;-75
2023/02/21 04:30:08;;;;;;;5.55;3.40;;;15.00;63.20;;;;;;5013314;28;20484;-76
2023/02/21 04:32:34;;;;;;;4.70;2.53;;;15.00;63.10;;;;;;5013607;28;20064;-76
2023/02/21 04:35:00;;;;;;;6.30;3.15;;;14.90;63.10;;;;;;5013269;28;20034;-76
2023/02/21 04:37:25;;;;;;;5.30;3.05;;;14.90;63.10;;;;;;5013342;28;20041;-78
2023/02/21 04:39:51;;;;;;;5.22;3.38;;;14.90;63.10;;;;;;5013311;28;20030;-78
2023/02/21 04:42:16;;;;;;;3.38;2.67;;;14.90;63.20;;;;;;5013285;28;20108;-78
2023/02/21 04:44:42;;;;;;;6.75;3.65;;;14.90;63.30;;;;;;5013141;28;20088;-78
2023/02/21 04:47:08;;;;;;;4.43;2.40;;;14.90;63.30;;;;;;5013141;28;20029;-78
2023/02/21 04:49:33;;;;;;;3.83;3.13;;;14.90;63.40;;;;;;5013349;28;20105;-78
2023/02/21 04:51:59;;;;;;;4.25;2.78;;;14.90;63.40;;;;;;5013093;28;20029;-78
2023/02/21 04:54:25;;;;;;;7.20;3.85;;;14.90;63.40;;;;;;5013241;28;20439;-79
2023/02/21 04:56:51;;;;;;;7.05;4.43;;;15.00;63.40;;;;;;5013090;28;20018;-78
2023/02/21 04:59:17;;;;;;;5.70;3.17;;;14.90;63.40;;;;;;5013189;28;20018;-78
2023/02/21 05:01:43;;;;;;;4.93;2.78;;;14.90;63.40;;;;;;5012784;28;20485;-79
2023/02/21 05:04:09;;;;;;;4.70;3.63;;;14.90;63.40;;;;;;5012983;28;20057;-78
2023/02/21 05:06:35;;;;;;;3.85;2.60;;;15.00;63.40;;;;;;5013048;28;20097;-78
2023/02/21 05:09:01;;;;;;;5.95;3.85;;;15.00;63.50;;;;;;5013038;28;20057;-78
2023/02/21 05:11:27;;;;;;;5.10;3.20;;;15.00;63.50;;;;;;5013004;28;20095;-78
2023/02/21 05:13:53;;;;;;;5.25;4.07;;;15.00;63.50;;;;;;5013085;28;20026;-78
2023/02/21 05:16:19;;;;;;;6.18;3.50;;;15.00;63.60;;;;;;5012649;28;20114;-79
2023/02/21 05:18:47;;;;;;;7.72;4.45;;;15.00;63.50;;;;;;5012673;28;20022;-79
2023/02/21 05:21:14;;;;;;;5.85;3.10;;;15.00;63.50;;;;;;5012946;28;20034;-79
2023/02/21 05:23:41;;;;;;;7.07;2.95;;;15.00;64.20;;;;;;5012855;28;20093;-79
2023/02/21 05:26:12;;;;;;;6.85;3.30;;;15.00;63.50;;;;;;5012707;28;20033;-78
2023/02/21 05:28:39;;;;;;;4.50;3.63;;;15.00;63.50;;;;;;5012423;28;20022;-79
2023/02/21 05:31:06;;;;;;;5.80;3.05;;;15.00;63.70;;;;;;5012427;28;20060;-78
2023/02/21 05:33:32;;;;;;;5.70;3.15;;;15.00;63.70;;;;;;5012651;28;20022;-78
2023/02/21 05:35:59;;;;;;;4.95;2.90;;;15.00;63.70;;;;;;5012679;28;20030;-78
2023/02/21 05:38:26;;;;;;;4.85;2.90;;;15.00;63.70;;;;;;5012676;28;20033;-79
2023/02/21 05:40:52;;;;;;;4.72;3.42;;;15.10;63.90;;;;;;5012716;28;20022;-79
2023/02/21 05:43:19;;;;;;;4.72;3.05;;;15.00;63.80;;;;;;5012525;28;20487;-78
2023/02/21 05:45:45;;;;;;;6.05;4.10;;;15.00;64.00;;;;;;5012651;28;20053;-78
2023/02/21 05:48:11;;;;;;;7.13;4.32;;;15.00;64.00;;;;;;5012643;28;20092;-78
2023/02/21 05:50:38;;;;;;;6.63;5.25;;;15.10;64.00;;;;;;5012662;28;20022;-79
2023/02/21 05:53:04;;;;;;;6.88;5.97;;;15.10;64.20;;;;;;5012284;28;20072;-78
2023/02/21 05:55:30;;;;;;;7.80;7.00;;;15.00;64.00;;;;;;5012195;28;20034;-78
2023/02/21 05:57:55;;;;;;;10.07;8.68;;;15.10;64.30;;;;;;4994787;28;20452;-78
2023/02/21 06:00:27;;;;;;;12.23;11.13;;;15.10;64.40;;;;;;5012201;28;20033;-79
2023/02/21 06:02:53;;;;;;;14.70;13.20;;;15.10;64.40;;;;;;5012158;28;20496;-78
2023/02/21 06:05:20;;;;;;;16.17;14.68;;;15.10;64.30;;;;;;5012163;28;20034;-78
2023/02/21 06:07:46;;;;;;;18.80;17.00;;;15.10;64.40;;;;;;5012429;28;20045;-78
2023/02/21 06:10:12;;;;;;;21.92;19.95;;;15.10;64.60;;;;;;5012354;28;20084;-78
2023/02/21 06:12:38;;;;;;;24.48;22.10;;;15.10;64.50;;;;;;5012217;28;20080;-77
2023/02/21 06:15:06;;;;;;;24.98;22.50;;;15.10;64.50;;;;;;5012262;28;20022;-79
2023/02/21 06:17:35;;;;;;;27.20;24.70;;;15.10;64.50;;;;;;5012079;28;20021;-77
2023/02/21 06:20:01;;;;;;;28.67;26.08;;;15.00;65.30;;;;;;5012377;28;20033;-77
2023/02/21 06:22:27;;;;;;;28.48;25.88;;;15.10;64.80;;;;;;5012057;28;20030;-78
2023/02/21 06:24:53;;;;;;;31.08;28.17;;;15.10;64.70;;;;;;5012213;28;20061;-78
2023/02/21 06:27:18;;;;;;;32.28;29.35;;;15.10;64.70;;;;;;4994699;28;20029;-79
2023/02/21 06:29:44;;;;;;;31.52;28.75;;;15.10;64.70;;;;;;5012154;28;20036;-76
2023/02/21 06:32:09;;;;;;;30.80;27.67;;;15.10;64.70;;;;;;5015578;28;20357;-78
2023/02/21 06:34:35;;;;;;;31.10;28.20;;;15.10;64.70;;;;;;5015687;28;20112;-78
2023/02/21 06:37:01;;;;;;;29.08;26.40;;;15.10;64.60;;;;;;5015731;28;20094;-77
2023/02/21 06:39:26;;;;;;;27.95;25.35;;;15.10;64.60;;;;;;5015972;28;20026;-78
2023/02/21 06:41:52;;;;;;;27.35;24.75;;;15.20;64.70;;;;;;5015850;28;20041;-77
2023/02/21 06:44:18;;;;;;;26.60;24.08;;;15.10;65.30;;;;;;5015513;28;20097;-77
2023/02/21 06:46:45;;;;;;;25.52;23.23;;;15.20;64.60;;;;;;5015775;28;20116;-77
2023/02/21 06:49:11;;;;;;;25.15;22.73;;;15.10;64.60;;;;;;5015507;28;20037;-77
2023/02/21 06:51:39;;;;;;;23.55;21.40;;;15.10;64.50;;;;;;5015547;28;20025;-77
2023/02/21 06:54:06;;;;;;;23.13;20.92;;;15.10;64.40;;;;;;5015507;28;20056;-77
2023/02/21 06:56:32;;;;;;;23.23;21.00;;;15.10;64.50;;;;;;5015442;28;20117;-81
2023/02/21 06:58:58;;;;;;;21.92;19.83;;;15.10;64.30;;;;;;5015224;28;20046;-82
2023/02/21 07:01:28;;;;;;;20.85;18.85;;;15.10;64.40;;;;;;5015279;28;20484;-81
2023/02/21 07:03:56;;;;;;;20.27;18.27;;;15.10;64.40;;;;;;5015748;28;20053;-79
2023/02/21 07:06:23;;;;;;;18.60;16.70;;;15.20;64.50;;;;;;5015346;28;20564;-81
2023/02/21 07:08:49;;;;;;;18.33;16.38;;;15.20;64.50;;;;;;5015675;28;20104;-81
2023/02/21 07:11:18;;;;;;;18.45;16.65;;;15.20;64.50;;;;;;5015411;28;20095;-80
2023/02/21 07:13:51;;;;;;;17.92;16.17;;;15.20;64.40;;;;;;5015328;28;20360;-78
2023/02/21 07:16:19;;;;;;;16.70;15.10;;;15.20;64.40;;;;;;5015006;28;20022;-78
2023/02/21 07:18:45;;;;;;;14.70;13.30;;;15.20;65.10;;;;;;5015192;28;20018;-78
2023/02/21 07:21:13;;;;;;;14.80;13.32;;;15.20;64.30;;;;;;5015226;28;20132;-78
2023/02/21 07:23:41;;;;;;;14.73;13.35;;;15.20;64.30;;;;;;5015324;28;20022;-80
2023/02/21 07:26:07;;;;;;;13.07;11.85;;;15.20;64.20;;;;;;5014894;28;20029;-80
2023/02/21 07:28:33;;;;;;;12.35;11.05;;;15.20;64.20;;;;;;5015161;28;20036;-78
2023/02/21 07:31:00;;;;;;;13.77;11.50;;;15.20;64.20;;;;;;4997147;28;20052;-79
2023/02/21 07:33:26;;;;;;;14.30;11.00;;;15.20;64.20;;;;;;5014851;28;20026;-78
2023/02/21 07:35:52;;;;;;;11.77;10.57;;;15.20;64.30;;;;;;4997282;28;20130;-78
2023/02/21 07:38:28;;;;;;;11.43;9.85;;;15.20;64.30;;;;;;4997089;28;20476;-78
2023/02/21 07:40:56;;;;;;;11.15;8.68;;;15.20;64.30;;;;;;4980984;28;20037;-77
2023/02/21 07:43:23;;;;;;;11.23;8.85;;;15.20;64.40;;;;;;4979901;28;20022;-78
2023/02/21 07:45:49;;;;;;;9.52;8.48;;;15.20;64.40;;;;;;4981098;28;20069;-77
2023/02/21 07:48:15;;;;;;;9.65;8.40;;;15.20;64.30;;;;;;4980917;28;20118;-78
2023/02/21 07:50:43;;;;;;;9.32;8.20;;;15.20;64.30;;;;;;4980554;28;20089;-78
2023/02/21 07:53:10;;;;;;;9.75;8.50;;;15.20;64.30;;;;;;4981127;28;20030;-80
2023/02/21 07:55:36;;;;;;;9.60;8.23;;;15.20;64.20;;;;;;4980855;28;20045;-78
2023/02/21 07:58:03;;;;;;;10.52;7.30;;;15.20;64.40;;;;;;4997034;28;20149;-78
2023/02/21 08:00:29;;;;;;;8.32;6.95;;;15.20;64.20;;;;;;4980679;28;20041;-79
2023/02/21 08:02:56;;;;;;;9.57;7.25;;;15.20;64.10;;;;;;4996336;28;20050;-78
2023/02/21 08:05:22;;;;;;;9.05;6.60;;;15.20;64.20;;;;;;4980724;28;20088;-78
2023/02/21 08:07:48;;;;;;;7.65;6.20;;;15.20;64.20;;;;;;4980397;28;20041;-83
2023/02/21 08:10:21;;;;;;;7.60;5.97;;;15.20;64.10;;;;;;4980533;28;20040;-79
2023/02/21 08:12:46;;;;;;;7.25;6.07;;;15.20;64.00;;;;;;5013926;28;20028;-79
2023/02/21 08:15:12;;;;;;;9.95;5.82;;;15.20;64.00;;;;;;5014071;28;20098;-79
2023/02/21 08:17:38;;;;;;;10.93;6.93;;;15.20;64.10;;;;;;5014006;28;20096;-80
2023/02/21 08:20:06;;;;;;;7.28;6.40;;;15.30;64.10;;;;;;5013973;28;20029;-79
2023/02/21 08:22:32;;;;;;;7.15;5.60;;;15.30;64.00;;;;;;5013632;28;20022;-80
2023/02/21 08:24:58;;;;;;;9.32;5.90;;;15.30;64.00;;;;;;5013363;28;20140;-78
2023/02/21 08:27:24;;;;;;;7.55;5.38;;;15.30;64.00;;;;;;5013800;28;20061;-79
2023/02/21 08:29:51;;;;;;;7.70;5.43;;;15.30;64.00;;;;;;5013833;28;20022;-78
2023/02/21 08:32:18;;;;;;;7.47;5.38;;;15.30;64.00;;;;;;5013972;28;20029;-78
2023/02/21 08:34:45;;;;;;;7.13;5.38;;;15.30;63.90;;;;;;5013666;28;20100;-80
2023/02/21 08:37:18;;;;;;;6.55;5.45;;;15.30;64.00;;;;;;5013369;28;20045;-79
2023/02/21 08:39:50;;;;;;;8.80;6.22;;;15.30;64.00;;;;;;5013396;28;20651;-79
2023/02/21 08:42:18;;;;;;;7.25;5.38;;;15.30;64.00;;;;;;5013534;28;20069;-77
2023/02/21 08:44:45;;;;;;;7.88;5.18;;;15.20;63.90;;;;;;5013447;28;20049;-79
2023/02/21 08:47:13;;;;;;;7.90;5.60;;;15.30;64.00;;;;;;5013459;28;20420;-79
2023/02/21 08:49:41;;;;;;;7.32;5.32;;;15.30;64.00;;;;;;5013423;28;20018;-80
2023/02/21 08:52:08;;;;;;;7.72;5.32;;;15.30;64.00;;;;;;5013383;28;20156;-79
2023/02/21 08:54:34;;;;;;;9.90;6.18;;;15.30;64.00;;;;;;5013069;28;20033;-77
2023/02/21 08:57:00;;;;;;;8.60;5.45;;;15.30;64.00;;;;;;5012994;28;20022;-79
2023/02/21 08:59:29;;;;;;;8.82;5.38;;;15.30;63.90;;;;;;5013346;28;20018;-77
2023/02/21 09:01:55;;;;;;;8.20;5.43;;;15.30;63.90;;;;;;5012903;28;20076;-75
2023/02/21 09:04:21;;;;;;;9.80;5.97;;;15.30;63.90;;;;;;5013090;28;20108;-81
2023/02/21 09:06:50;;;;;;;8.35;5.47;;;15.30;63.90;;;;;;5013189;28;20029;-77
2023/02/21 09:09:16;;;;;;;9.43;5.75;;;15.30;63.80;;;;;;5013032;28;20018;-80
2023/02/21 09:11:45;;;;;;;13.93;7.70;;;15.30;63.80;;;;;;5012818;28;20037;-76
2023/02/21 09:14:12;;;;;;;16.15;9.10;;;15.30;63.80;;;;;;5012781;28;20535;-79
2023/02/21 09:16:38;;;;;;;16.25;9.82;;;15.30;63.90;;;;;;5013028;28;20102;-78
2023/02/21 09:19:05;;;;;;;14.57;9.40;;;15.30;63.90;;;;;;5012918;28;20021;-80
2023/02/21 09:21:34;;;;;;;14.43;8.88;;;15.30;63.90;;;;;;5012906;28;20038;-77
2023/02/21 09:24:01;;;;;;;19.27;11.25;;;15.30;63.90;;;;;;4995418;28;20026;-77
2023/02/21 09:26:30;;;;;;;14.98;9.07;;;15.30;64.00;;;;;;4995355;28;20037;-77
2023/02/21 09:28:57;;;;;;;12.23;7.57;;;15.30;64.00;;;;;;4979628;28;20038;-77
2023/02/21 09:31:23;;;;;;;14.40;8.85;;;15.30;64.00;;;;;;4978829;28;20444;-78
2023/02/21 09:33:48;;;;;;;12.38;8.00;;;15.30;63.90;;;;;;4994702;28;20046;-77
2023/02/21 09:36:14;;;;;;;12.65;8.63;;;15.30;64.00;;;;;;4994991;28;20044;-77
2023/02/21 09:38:41;;;;;;;13.20;7.82;;;15.30;64.00;;;;;;4978770;28;20033;-77
2023/02/21 09:41:11;;;;;;;11.60;8.35;;;15.30;64.00;;;;;;4994775;28;20113;-77
2023/02/21 09:43:38;;;;;;;;;;;15.30;63.90;;;;;;4979501;28;20381;-77
2023/02/21 09:46:19;;;;;;;11.68;7.82;;;15.30;63.90;;;;;;4994531;28;19924;-77
2023/02/21 09:48:46;;;;;;;12.15;7.88;;;15.30;64.00;;;;;;5012367;28;20017;-77
2023/02/21 09:51:13;;;;;;;15.60;9.40;;;15.30;64.00;;;;;;5012641;28;20026;-77
2023/02/21 09:53:47;;;;;;;11.52;7.05;;;15.30;64.00;;;;;;5012768;28;20025;-77
2023/02/21 09:56:35;;;;;;;11.23;6.97;;;15.30;63.90;;;;;;5012612;28;20353;-77
2023/02/21 09:59:01;;;;;;;12.48;8.20;;;15.30;63.90;;;;;;5012223;28;20034;-77
2023/02/21 10:02:04;;;;;;;10.40;7.32;;;15.30;63.90;;;;;;5012022;28;20524;-78
2023/02/21 10:04:36;;;;;;;11.13;7.32;;;15.30;63.80;;;;;;5012231;28;20050;-78
2023/02/21 10:07:15;;;;;;;10.25;7.13;;;15.30;63.90;;;;;;5014504;28;20030;-77
2023/02/21 10:10:17;;;;;;;9.97;7.23;;;15.30;63.90;;;;;;4998641;28;20026;-77
2023/02/21 10:13:25;;;;;;;9.45;6.75;;;15.30;64.50;;;;;;4965326;28;20484;-77
2023/02/21 10:16:24;;;;;;;11.77;7.15;;;15.30;64.00;;;;;;5016280;28;20033;-76
2023/02/21 10:18:55;;;;;;;8.75;5.95;;;15.30;63.90;;;;;;5011346;28;20513;-77
2023/02/21 10:21:31;;;;;;;10.10;6.53;;;15.30;63.80;;;;;;5016138;28;20034;-77
2023/02/21 10:24:03;;;;;;;9.65;6.30;;;15.30;63.90;;;;;;5015821;28;20030;-77
2023/02/21 10:26:36;;;;;;;8.70;5.78;;;15.30;64.70;;;;;;5015959;28;20110;-76
2023/02/21 10:29:15;;;;;;;13.15;7.00;;;15.30;64.00;;;;;;4982605;28;20037;-76
2023/02/21 10:31:44;;;;;;;8.40;5.88;;;15.30;64.00;;;;;;4983837;28;20434;-77
2023/02/21 10:34:23;;;;;;;8.68;6.15;;;15.30;64.00;;;;;;4982158;28;20481;-76
2023/02/21 10:36:51;;;;;;;7.13;5.40;;;15.30;63.90;;;;;;4982880;28;20026;-77
2023/02/21 10:39:29;;;;;;;8.45;5.88;;;15.30;64.00;;;;;;4982143;28;20076;-76
2023/02/21 10:41:56;;;;;;;6.82;5.07;;;15.30;63.90;;;;;;4983501;28;20053;-75
2023/02/21 10:44:30;;;;;;;7.47;4.97;;;15.30;63.90;;;;;;4997798;28;20103;-76
2023/02/21 10:47:21;;;;;;;8.50;5.88;;;15.30;63.80;;;;;;5015345;28;20488;-76
2023/02/21 10:49:57;;;;;;;6.13;4.43;;;15.30;63.90;;;;;;5015882;28;20105;-77
2023/02/21 10:52:23;;;;;;;7.30;5.03;;;15.30;63.90;;;;;;5015275;28;20065;-76
2023/02/21 10:55:17;;;;;;;7.35;4.47;;;15.30;63.80;;;;;;5015516;28;20052;-77
2023/02/21 10:57:46;;;;;;;6.22;4.55;;;15.30;63.80;;;;;;5015275;28;20036;-77
2023/02/21 11:00:37;;;;;;;7.40;4.82;;;15.30;63.80;;;;;;5015104;28;20510;-77
2023/02/21 11:03:18;;;;;;;8.48;4.22;;;15.30;63.80;;;;;;5015139;28;20081;-77
2023/02/21 11:05:51;;;;;;;6.60;4.93;;;15.30;63.80;;;;;;5015139;28;20030;-79
2023/02/21 11:08:39;;;;;;;5.97;4.75;;;15.30;63.80;;;;;;5015031;28;20044;-78
2023/02/21 11:11:06;;;;;;;5.78;3.83;;;15.30;63.80;;;;;;5015300;28;20021;-77
2023/02/21 11:13:32;;;;;;;5.90;4.38;;;15.30;63.80;;;;;;5015201;28;20026;-77
2023/02/21 11:16:16;;;;;;;7.20;4.55;;;15.30;63.70;;;;;;5014627;28;20049;-78
2023/02/21 11:18:44;;;;;;;6.43;4.10;;;15.30;63.80;;;;;;4997729;28;20041;-79
2023/02/21 11:21:16;;;;;;;4.97;3.35;;;15.30;63.80;;;;;;5015284;28;20031;-77
2023/02/21 11:24:01;;;;;;;4.78;3.97;;;15.30;63.70;;;;;;5014895;28;20080;-78
2023/02/21 11:26:30;;;;;;;4.72;4.00;;;15.30;63.70;;;;;;5015091;28;20034;-79
2023/02/21 11:29:15;;;;;;;6.57;3.30;;;15.30;63.70;;;;;;5014984;28;20426;-78
2023/02/21 11:31:42;;;;;;;4.63;4.03;;;15.30;63.70;;;;;;5014973;28;20026;-77
2023/02/21 11:34:11;;;;;;;5.93;3.90;;;15.30;63.70;;;;;;5014586;28;20045;-76
2023/02/21 11:36:42;;;;;;;5.95;3.80;;;15.30;63.70;;;;;;5014807;28;20040;-79
2023/02/21 11:39:17;;;;;;;6.72;4.07;;;15.30;63.70;;;;;;5014597;28;20484;-76
2023/02/21 11:41:49;;;;;;;5.82;3.50;;;15.30;63.60;;;;;;5014694;28;20366;-74
2023/02/21 11:44:36;;;;;;;4.20;3.15;;;15.30;63.60;;;;;;5014630;28;20153;-76
2023/02/21 11:47:36;;;;;;;5.45;3.35;;;15.30;63.60;;;;;;5014557;28;20048;-75
2023/02/21 11:50:07;;;;;;;5.35;3.70;;;15.30;63.60;;;;;;5014326;28;20018;-75
2023/02/21 11:52:39;;;;;;;5.90;2.83;;;15.30;63.60;;;;;;5014748;28;20054;-75
2023/02/21 11:55:16;;;;;;;4.25;2.65;;;15.30;63.60;;;;;;5014441;28;20021;-76
2023/02/21 11:57:48;;;;;;;4.93;3.45;;;15.30;63.60;;;;;;5014437;28;20030;-75
2023/02/21 12:01:04;;;;;;;3.47;2.95;;;15.30;63.60;;;;;;5014176;28;20029;-76
2023/02/21 12:04:03;;;;;;;5.57;3.20;;;15.30;64.20;;;;;;5006788;28;20053;-75
2023/02/21 12:06:58;;;;;;;4.40;2.80;;;15.30;63.60;;;;;;5014256;28;20033;-75
2023/02/21 12:09:27;;;;;;;3.80;3.08;;;15.30;63.60;;;;;;5014331;28;20026;-75
2023/02/21 12:12:03;;;;;;;4.38;2.42;;;15.30;63.60;;;;;;5014187;28;20046;-74
2023/02/21 12:14:36;;;;;;;3.25;2.60;;;15.30;63.60;;;;;;5014350;28;20046;-75
2023/02/21 12:17:05;;;;;;;4.38;2.65;;;15.30;63.60;;;;;;5014315;28;20091;-76
2023/02/21 12:20:07;;;;;;;3.25;2.50;;;15.30;63.60;;;;;;5014105;28;20034;-74
2023/02/21 12:22:39;;;;;;;4.60;2.42;;;15.30;63.70;;;;;;5013803;28;20048;-75
2023/02/21 12:25:26;;;;;;;3.67;3.00;;;15.30;63.60;;;;;;5013939;28;20040;-75
2023/02/21 12:28:31;;;;;;;4.32;2.85;;;15.30;63.60;;;;;;5012929;28;20473;-74
2023/02/21 12:31:28;;;;;;;3.05;2.40;;;15.30;63.60;;;;;;5013524;28;20029;-75
2023/02/21 12:34:07;;;;;;;3.50;2.60;;;15.30;63.60;;;;;;5013498;28;20576;-75
2023/02/21 12:37:12;;;;;;;4.07;2.80;;;15.30;63.60;;;;;;5013785;28;20109;-75
2023/02/21 12:39:53;;;;;;;2.92;2.40;;;15.30;63.60;;;;;;4976151;28;20026;-75
2023/02/21 12:42:44;;;;;;;4.10;2.45;;;15.30;64.30;;;;;;5013507;28;20040;-75
2023/02/21 12:45:25;;;;;;;4.32;2.20;;;15.30;63.60;;;;;;5013478;28;20040;-74
2023/02/21 12:48:06;;;;;;;;;;;15.30;63.60;;;;;;5014067;28;20445;-76
2023/02/21 12:50:40;;;;;;;2.42;2.20;;;15.30;63.60;;;;;;5013238;28;19960;-74
2023/02/21 12:53:33;;;;;;;3.05;2.70;;;15.30;64.30;;;;;;5013500;28;20407;-74
2023/02/21 12:56:25;;;;;;;3.00;2.45;;;15.30;63.60;;;;;;5013493;28;20491;-74
2023/02/21 12:59:12;;;;;;;2.75;2.47;;;15.30;63.60;;;;;;5012642;28;20038;-74
2023/02/21 13:01:57;;;;;;;3.00;2.70;;;15.30;63.60;;;;;;5013107;28;20447;-76
2023/02/21 13:04:41;;;;;;;2.63;2.38;;;15.30;63.50;;;;;;5013194;28;20113;-75
2023/02/21 13:07:35;;;;;;;2.78;1.88;;;15.30;63.50;;;;;;5013228;28;20034;-76
2023/02/21 13:10:39;;;;;;;2.88;2.58;;;15.30;63.40;;;;;;5012743;28;20409;-76
2023/02/21 13:13:15;;;;;;;2.60;2.35;;;15.30;63.50;;;;;;5013061;28;20477;-73
2023/02/21 13:15:44;;;;;;;3.90;2.50;;;15.30;63.40;;;;;;5013065;28;20053;-76
2023/02/21 13:18:18;;;;;;;3.38;2.38;;;15.30;63.50;;;;;;5012536;28;20476;-75
2023/02/21 13:20:51;;;;;;;3.97;2.50;;;15.30;64.10;;;;;;5012986;28;20032;-76
2023/02/21 13:23:36;;;;;;;3.47;2.75;;;15.30;64.10;;;;;;5012872;28;20022;-75
2023/02/21 13:26:50;;;;;;;4.10;2.88;;;15.30;63.40;;;;;;5012459;28;20049;-74
2023/02/21 13:29:28;;;;;;;3.35;2.35;;;15.30;63.40;;;;;;4975358;28;20038;-75
2023/02/21 13:32:00;;;;;;;5.05;3.47;;;15.30;63.40;;;;;;5012960;28;20080;-78
2023/02/21 13:34:30;;;;;;;3.30;2.65;;;15.30;63.40;;;;;;5012671;28;20021;-74
2023/02/21 13:37:07;;;;;;;3.00;2.70;;;15.30;63.40;;;;;;5012504;28;20022;-74
2023/02/21 13:39:37;;;;;;;3.67;2.38;;;15.30;63.40;;;;;;5012492;28;20026;-74
2023/02/21 13:42:08;;;;;;;3.75;2.72;;;15.30;63.40;;;;;;5012461;28;20478;-74
2023/02/21 13:44:36;;;;;;;;;;;15.30;63.40;;;;;;5012868;28;20026;-75
2023/02/21 13:47:09;;;;;;;4.25;2.53;;;15.30;63.40;;;;;;5012320;28;19910;-74
2023/02/21 13:49:47;;;;;;;3.28;2.40;;;15.30;63.40;;;;;;5012418;28;20519;-74
2023/02/21 13:52:18;;;;;;;3.60;2.15;;;15.30;63.40;;;;;;5012268;28;20380;-73
2023/02/21 13:55:14;;;;;;;3.20;2.42;;;15.30;63.40;;;;;;5012247;28;20034;-74
2023/02/21 13:57:53;;;;;;;4.20;2.85;;;15.30;63.40;;;;;;5012283;28;20531;-74
2023/02/21 14:00:24;;;;;;;3.22;2.78;;;15.30;63.40;;;;;;5012208;28;20112;-73
2023/02/21 14:03:18;;;;;;;2.95;2.60;;;15.30;63.30;;;;;;5011924;28;20477;-73
2023/02/21 14:05:43;;;;;;;3.58;2.35;;;15.30;63.30;;;;;;4976447;28;20050;-74
2023/02/21 14:08:25;;;;;;;2.78;2.17;;;15.30;63.30;;;;;;5012383;28;20030;-76
2023/02/21 14:10:55;;;;;;;2.55;2.33;;;15.30;63.30;;;;;;5012194;28;20030;-76
2023/02/21 14:13:38;;;;;;;3.88;2.40;;;15.30;63.20;;;;;;5012141;28;20041;-76
2023/02/21 14:16:06;;;;;;;3.88;2.50;;;15.20;63.20;;;;;;5012250;28;20433;-76
2023/02/21 14:18:58;;;;;;;2.70;2.20;;;15.30;63.30;;;;;;5012009;28;20112;-76
2023/02/21 14:21:49;;;;;;;2.95;2.03;;;15.30;63.20;;;;;;5010741;28;20037;-76
2023/02/21 14:24:21;;;;;;;2.80;2.33;;;15.20;63.20;;;;;;5012030;28;20072;-76
2023/02/21 14:27:06;;;;;;;2.40;2.20;;;15.20;63.20;;;;;;5012309;28;20392;-76
2023/02/21 14:29:39;;;;;;;2.90;2.03;;;15.10;63.20;;;;;;5011888;28;20056;-75
2023/02/21 14:32:07;;;;;;;3.63;2.35;;;15.20;63.20;;;;;;5011990;28;20030;-76
2023/02/21 14:34:38;;;;;;;2.50;2.22;;;15.20;63.20;;;;;;5011930;28;20030;-76
2023/02/21 14:37:27;;;;;;;3.03;2.13;;;15.20;63.20;;;;;;5011957;28;20480;-76
2023/02/21 14:40:10;;;;;;;3.13;2.47;;;15.20;63.20;;;;;;4996624;28;20042;-76
2023/02/21 14:43:01;;;;;;;3.47;2.50;;;15.20;63.10;;;;;;5012161;28;20060;-76
2023/02/21 14:45:39;;;;;;;3.05;2.38;;;15.20;63.20;;;;;;5012407;28;20042;-76
2023/02/21 14:48:36;;;;;;;4.45;2.80;;;15.20;63.10;;;;;;5011940;28;20029;-75
2023/02/21 14:51:53;;;;;;;3.10;2.47;;;15.30;63.20;;;;;;5012364;28;20037;-73
2023/02/21 14:54:37;;;;;;;2.88;2.58;;;15.30;63.10;;;;;;5015273;28;20093;-76
2023/02/21 14:57:33;;;;;;;3.53;2.38;;;15.20;63.00;;;;;;5015318;28;20026;-74
2023/02/21 15:00:17;;;;;;;5.13;3.05;;;15.20;63.10;;;;;;5015601;28;20030;-74
2023/02/21 15:03:03;;;;;;;4.63;2.55;;;15.20;63.00;;;;;;5014923;28;20573;-74
2023/02/21 15:06:01;;;;;;;3.28;2.45;;;15.20;63.00;;;;;;5015093;28;20522;-76
2023/02/21 15:08:28;;;;;;;3.00;2.40;;;15.20;63.00;;;;;;5015394;28;20380;-76
2023/02/21 15:11:33;;;;;;;3.78;2.53;;;15.20;63.00;;;;;;5015036;28;20076;-76
2023/02/21 15:14:23;;;;;;;3.88;3.10;;;15.20;63.00;;;;;;5014367;28;20038;-76
2023/02/21 15:16:57;;;;;;;3.65;2.80;;;15.20;63.10;;;;;;5015330;28;20033;-76
2023/02/21 15:19:27;;;;;;;4.93;3.05;;;15.20;63.00;;;;;;5015207;28;20400;-76
2023/02/21 15:22:12;;;;;;;3.70;3.15;;;15.20;63.00;;;;;;5014861;28;20088;-76
2023/02/21 15:24:38;;;;;;;3.88;2.83;;;15.20;63.00;;;;;;5014588;28;20026;-76
2023/02/21 15:27:12;;;;;;;3.72;2.90;;;15.20;63.00;;;;;;5015059;28;20057;-76
2023/02/21 15:29:39;;;;;;;3.80;2.67;;;15.20;63.00;;;;;;5014809;28;20366;-76